Time;durP1;ratioP1;P1;durP2;ratioP2;P2;SDS_P1;SDS_P2;PMS_P1;PMS_P2;Temp;Humidity;BMP_temperature;BMP_pressure;BME280_temperature;BME280_humidity;BME280_pressure;Samples;Min_cycle;Max_cycle;Signal;HPM_P1;HPM_P2
2021/08/21 00:01:11;;;;;;;1.63;1.30;;;13.80;99.90;;;;;;5097943;28;20024;-68
2021/08/21 00:03:38;;;;;;;0.80;0.80;;;13.80;99.90;;;;;;5099405;28;20508;-68
2021/08/21 00:06:04;;;;;;;1.17;1.10;;;13.80;99.90;;;;;;5099666;28;20035;-68
2021/08/21 00:08:30;;;;;;;1.10;0.95;;;13.80;99.90;;;;;;5099230;28;20431;-68
2021/08/21 00:10:56;;;;;;;1.00;1.00;;;13.80;99.90;;;;;;5099186;28;20568;-68
2021/08/21 00:13:22;;;;;;;1.92;1.05;;;13.80;99.90;;;;;;5099072;28;20061;-67
2021/08/21 00:15:48;;;;;;;3.00;1.33;;;13.70;99.90;;;;;;5099475;28;20028;-68
2021/08/21 00:18:14;;;;;;;3.03;1.40;;;13.60;99.90;;;;;;5097820;28;20030;-68
2021/08/21 00:20:40;;;;;;;1.30;1.20;;;13.70;99.90;;;;;;5099526;28;20393;-69
2021/08/21 00:23:06;;;;;;;1.27;0.90;;;13.70;99.90;;;;;;5097695;28;20026;-68
2021/08/21 00:25:32;;;;;;;1.02;1.00;;;13.60;99.90;;;;;;5099000;28;20410;-68
2021/08/21 00:27:58;;;;;;;4.25;1.30;;;13.70;99.90;;;;;;5098578;28;20020;-68
2021/08/21 00:30:23;;;;;;;1.08;0.95;;;13.70;99.90;;;;;;5097702;28;20058;-68
2021/08/21 00:32:51;;;;;;;1.40;1.30;;;13.60;99.90;;;;;;5098749;28;20020;-68
2021/08/21 00:35:17;;;;;;;3.92;1.15;;;13.70;99.90;;;;;;5098865;28;20020;-68
2021/08/21 00:37:43;;;;;;;2.60;1.48;;;13.70;99.90;;;;;;5098799;28;20020;-68
2021/08/21 00:40:10;;;;;;;1.65;1.20;;;13.60;99.90;;;;;;5098938;28;20032;-69
2021/08/21 00:42:36;;;;;;;2.78;1.25;;;13.60;99.90;;;;;;5097001;28;20024;-68
2021/08/21 00:45:04;;;;;;;2.05;1.52;;;13.60;99.90;;;;;;5098769;28;20051;-68
2021/08/21 00:47:30;;;;;;;1.73;1.30;;;13.50;99.90;;;;;;5098473;28;20020;-68
2021/08/21 00:49:56;;;;;;;1.65;1.55;;;13.60;99.90;;;;;;5098535;28;20473;-68
2021/08/21 00:52:25;;;;;;;1.30;1.20;;;13.60;99.90;;;;;;5098507;28;20020;-68
2021/08/21 00:54:52;;;;;;;2.53;1.23;;;13.60;99.90;;;;;;5098341;28;20126;-68
2021/08/21 00:57:18;;;;;;;2.83;1.20;;;13.60;99.90;;;;;;5098349;28;20023;-68
2021/08/21 00:59:46;;;;;;;1.30;1.20;;;13.50;99.90;;;;;;5098269;28;20415;-69
2021/08/21 01:02:13;;;;;;;1.67;1.42;;;13.50;99.90;;;;;;5098365;28;20099;-68
2021/08/21 01:04:44;;;;;;;6.43;1.30;;;13.40;99.90;;;;;;5098525;28;20052;-68
2021/08/21 01:07:15;;;;;;;1.23;1.13;;;13.40;99.90;;;;;;5098304;28;20023;-68
2021/08/21 01:09:42;;;;;;;5.20;1.40;;;13.40;99.90;;;;;;5098188;28;20069;-68
2021/08/21 01:12:16;;;;;;;1.45;1.13;;;13.40;99.90;;;;;;5096959;28;20031;-69
2021/08/21 01:14:43;;;;;;;5.15;1.67;;;13.40;99.90;;;;;;5097980;28;20392;-68
2021/08/21 01:17:10;;;;;;;2.55;1.40;;;13.50;99.90;;;;;;5098326;28;20468;-68
2021/08/21 01:19:39;;;;;;;1.25;1.15;;;13.40;99.90;;;;;;5096583;28;20024;-68
2021/08/21 01:22:10;;;;;;;2.60;1.35;;;13.40;99.90;;;;;;5098059;28;20022;-68
2021/08/21 01:24:36;;;;;;;1.20;1.13;;;13.30;99.90;;;;;;5097719;28;20115;-68
2021/08/21 01:27:03;;;;;;;2.55;1.55;;;13.30;99.90;;;;;;5097991;28;20024;-69
2021/08/21 01:29:29;;;;;;;1.83;1.45;;;13.40;99.90;;;;;;5097610;28;20543;-68
2021/08/21 01:31:55;;;;;;;3.08;1.40;;;13.50;99.90;;;;;;5097665;28;20055;-68
2021/08/21 01:34:21;;;;;;;2.88;1.60;;;13.60;99.90;;;;;;5097726;28;20365;-69
2021/08/21 01:36:49;;;;;;;2.55;1.30;;;13.50;99.90;;;;;;5097708;28;20027;-68
2021/08/21 01:39:16;;;;;;;3.30;1.63;;;13.60;99.90;;;;;;5097475;28;20020;-68
2021/08/21 01:41:42;;;;;;;3.60;1.70;;;13.60;99.90;;;;;;5097815;28;20081;-68
2021/08/21 01:44:12;;;;;;;1.70;1.60;;;13.70;99.90;;;;;;5097440;28;20046;-68
2021/08/21 01:46:38;;;;;;;1.48;1.38;;;13.60;99.90;;;;;;5097757;28;20035;-68
2021/08/21 01:49:11;;;;;;;2.03;1.70;;;13.70;99.90;;;;;;5097419;28;20027;-68
2021/08/21 01:51:48;;;;;;;1.77;1.58;;;13.60;99.90;;;;;;5096108;28;20032;-68
2021/08/21 01:54:20;;;;;;;1.85;1.58;;;13.60;99.90;;;;;;5097250;28;20395;-68
2021/08/21 01:56:51;;;;;;;4.32;2.22;;;13.50;99.90;;;;;;5097370;28;20024;-68
2021/08/21 01:59:39;;;;;;;2.47;2.15;;;13.60;99.90;;;;;;5096629;28;20020;-68
2021/08/21 02:02:06;;;;;;;2.10;1.92;;;13.70;99.90;;;;;;5097002;28;20020;-68
2021/08/21 02:04:33;;;;;;;3.50;2.10;;;13.60;99.90;;;;;;5097212;28;20058;-68
2021/08/21 02:06:59;;;;;;;3.83;1.95;;;13.60;99.90;;;;;;5096936;28;20020;-67
2021/08/21 02:09:26;;;;;;;4.50;2.33;;;13.60;99.90;;;;;;5097048;28;20538;-69
2021/08/21 02:11:54;;;;;;;4.90;2.13;;;13.50;99.90;;;;;;5096942;28;20047;-68
2021/08/21 02:14:20;;;;;;;3.35;3.05;;;13.40;99.90;;;;;;5096828;28;20091;-68
2021/08/21 02:16:51;;;;;;;4.10;2.38;;;13.40;99.90;;;;;;5096933;28;20028;-68
2021/08/21 02:19:17;;;;;;;2.65;2.45;;;13.40;99.90;;;;;;5097146;28;20023;-68
2021/08/21 02:21:44;;;;;;;5.00;2.70;;;13.50;99.90;;;;;;5096889;28;20483;-67
2021/08/21 02:24:10;;;;;;;3.30;2.45;;;13.50;99.90;;;;;;5097024;28;20024;-68
2021/08/21 02:26:41;;;;;;;2.70;2.28;;;13.50;99.90;;;;;;5095474;28;20027;-68
2021/08/21 02:29:07;;;;;;;3.33;2.47;;;13.40;99.90;;;;;;5096724;28;20028;-67
2021/08/21 02:31:34;;;;;;;2.28;2.08;;;13.40;99.90;;;;;;5096759;28;20056;-68
2021/08/21 02:34:00;;;;;;;3.22;2.47;;;13.40;99.90;;;;;;5095591;28;20073;-69
2021/08/21 02:36:26;;;;;;;3.03;2.70;;;13.40;99.90;;;;;;5096818;28;20012;-68
2021/08/21 02:38:51;;;;;;;2.28;2.15;;;13.30;99.90;;;;;;5096793;28;20020;-68
2021/08/21 02:41:18;;;;;;;2.50;2.15;;;13.20;99.90;;;;;;5096628;28;20076;-68
2021/08/21 02:43:43;;;;;;;3.60;2.08;;;13.40;99.90;;;;;;5096474;28;20021;-68
2021/08/21 02:46:09;;;;;;;3.65;3.13;;;13.40;99.90;;;;;;5096766;28;20016;-67
2021/08/21 02:48:35;;;;;;;6.85;3.08;;;13.30;99.90;;;;;;5096727;28;20404;-68
2021/08/21 02:51:01;;;;;;;5.25;2.85;;;13.40;99.90;;;;;;5096657;28;20107;-68
2021/08/21 02:53:27;;;;;;;2.10;2.00;;;13.30;99.90;;;;;;5096476;28;20048;-68
2021/08/21 02:55:53;;;;;;;3.80;2.90;;;13.40;99.90;;;;;;5096530;28;20047;-68
2021/08/21 02:58:19;;;;;;;2.95;2.65;;;13.20;99.90;;;;;;5096362;28;20020;-68
2021/08/21 03:00:44;;;;;;;5.55;3.88;;;13.20;99.90;;;;;;5096473;28;20024;-68
2021/08/21 03:03:11;;;;;;;2.70;2.50;;;13.20;99.90;;;;;;5096708;28;20020;-68
2021/08/21 03:05:38;;;;;;;2.88;2.67;;;13.30;99.90;;;;;;5096483;28;20107;-68
2021/08/21 03:08:04;;;;;;;4.63;2.80;;;13.30;99.90;;;;;;5096604;28;20028;-68
2021/08/21 03:10:31;;;;;;;4.85;3.28;;;13.10;99.90;;;;;;5097576;28;20164;-68
2021/08/21 03:12:56;;;;;;;4.68;3.15;;;13.20;99.90;;;;;;5100172;28;20028;-68
2021/08/21 03:15:27;;;;;;;3.50;3.20;;;13.10;99.90;;;;;;5100309;28;20016;-68
2021/08/21 03:17:53;;;;;;;2.58;2.38;;;13.20;99.90;;;;;;5100442;28;20024;-67
2021/08/21 03:20:19;;;;;;;3.88;2.70;;;13.20;99.90;;;;;;5100456;28;20368;-68
2021/08/21 03:22:45;;;;;;;2.30;2.10;;;13.30;99.90;;;;;;5100391;28;20024;-68
2021/08/21 03:25:12;;;;;;;3.08;2.47;;;13.10;99.90;;;;;;5100275;28;20028;-68
2021/08/21 03:27:38;;;;;;;2.05;1.95;;;13.20;99.90;;;;;;5100097;28;20024;-68
2021/08/21 03:30:06;;;;;;;2.47;2.28;;;13.10;99.90;;;;;;5098843;28;20127;-68
2021/08/21 03:32:32;;;;;;;4.05;3.08;;;13.10;99.90;;;;;;5099964;28;20149;-68
2021/08/21 03:34:58;;;;;;;2.78;2.58;;;13.00;99.90;;;;;;5100363;28;20020;-68
2021/08/21 03:37:24;;;;;;;2.70;2.50;;;13.20;99.90;;;;;;5099981;28;20024;-68
2021/08/21 03:39:50;;;;;;;2.97;2.70;;;13.10;99.90;;;;;;5099937;28;20472;-68
2021/08/21 03:42:16;;;;;;;3.10;2.78;;;13.10;99.90;;;;;;5099733;28;20119;-67
2021/08/21 03:44:42;;;;;;;2.70;2.50;;;13.10;99.90;;;;;;5100235;28;20103;-67
2021/08/21 03:47:08;;;;;;;4.15;2.88;;;13.10;99.90;;;;;;5100004;28;20056;-68
2021/08/21 03:49:34;;;;;;;3.40;2.85;;;13.10;99.90;;;;;;5099712;28;20026;-68
2021/08/21 03:52:00;;;;;;;3.25;2.95;;;13.20;99.90;;;;;;5099656;28;20059;-68
2021/08/21 03:54:26;;;;;;;2.60;2.40;;;13.00;99.90;;;;;;5099467;28;20047;-68
2021/08/21 03:56:52;;;;;;;3.70;2.35;;;13.10;99.90;;;;;;5099760;28;20137;-68
2021/08/21 03:59:18;;;;;;;3.45;2.45;;;13.00;99.90;;;;;;5099535;28;20024;-68
2021/08/21 04:01:44;;;;;;;6.88;4.07;;;13.10;99.90;;;;;;5099385;28;20024;-68
2021/08/21 04:04:09;;;;;;;2.67;2.42;;;13.20;99.90;;;;;;5099740;28;20028;-68
2021/08/21 04:06:39;;;;;;;3.15;2.88;;;13.10;99.90;;;;;;5099488;28;20109;-68
2021/08/21 04:09:05;;;;;;;3.10;2.80;;;13.10;99.90;;;;;;5098107;28;20103;-68
2021/08/21 04:11:32;;;;;;;2.60;2.40;;;13.10;99.90;;;;;;5097955;28;20024;-68
2021/08/21 04:13:57;;;;;;;4.45;3.80;;;13.00;99.90;;;;;;5097877;28;20020;-68
2021/08/21 04:16:23;;;;;;;4.75;3.20;;;13.10;99.90;;;;;;5099166;28;20459;-68
2021/08/21 04:18:49;;;;;;;6.35;3.00;;;13.20;99.90;;;;;;5099338;28;20067;-68
2021/08/21 04:21:15;;;;;;;2.72;2.53;;;13.20;99.90;;;;;;5098738;28;20514;-68
2021/08/21 04:23:41;;;;;;;3.33;3.03;;;13.30;99.90;;;;;;5099184;28;20079;-68
2021/08/21 04:26:07;;;;;;;4.50;4.07;;;13.30;99.90;;;;;;5099080;28;20527;-67
2021/08/21 04:28:34;;;;;;;5.28;3.10;;;13.60;99.90;;;;;;5098926;28;20374;-68
2021/08/21 04:31:00;;;;;;;4.47;3.63;;;13.60;99.90;;;;;;5098885;28;20016;-68
2021/08/21 04:33:25;;;;;;;3.08;2.78;;;13.70;99.90;;;;;;5098704;28;20030;-68
2021/08/21 04:35:51;;;;;;;3.50;2.90;;;13.80;99.90;;;;;;5098880;28;20030;-67
2021/08/21 04:38:18;;;;;;;3.35;3.05;;;13.80;99.90;;;;;;5098833;28;20020;-67
2021/08/21 04:40:46;;;;;;;3.42;3.13;;;13.80;99.90;;;;;;5098772;28;20020;-69
2021/08/21 04:43:16;;;;;;;3.28;2.97;;;13.80;99.90;;;;;;5098601;28;20020;-68
2021/08/21 04:45:43;;;;;;;4.90;4.30;;;13.70;99.90;;;;;;5098812;28;20085;-68
2021/08/21 04:48:10;;;;;;;4.72;3.00;;;13.70;99.90;;;;;;5097552;28;20024;-69
2021/08/21 04:50:37;;;;;;;5.10;3.50;;;13.80;99.90;;;;;;5098467;28;20054;-68
2021/08/21 04:53:06;;;;;;;6.07;4.03;;;13.80;99.90;;;;;;5098650;28;20032;-68
2021/08/21 04:55:33;;;;;;;5.25;3.70;;;13.80;99.90;;;;;;5098323;28;20044;-67
2021/08/21 04:58:00;;;;;;;5.43;3.58;;;14.00;99.90;;;;;;5098309;28;20089;-68
2021/08/21 05:00:28;;;;;;;5.72;3.72;;;13.90;99.90;;;;;;5098392;28;20099;-68
2021/08/21 05:02:57;;;;;;;4.82;4.18;;;13.90;99.90;;;;;;5098372;28;20469;-68
2021/08/21 05:05:24;;;;;;;4.45;4.00;;;14.10;99.90;;;;;;5098274;28;20484;-69
2021/08/21 05:07:50;;;;;;;4.30;3.60;;;14.20;99.90;;;;;;5098364;28;20028;-68
2021/08/21 05:10:16;;;;;;;4.90;4.43;;;14.10;99.90;;;;;;5098018;28;20073;-68
2021/08/21 05:12:43;;;;;;;5.45;4.55;;;14.20;99.90;;;;;;5097816;28;20027;-68
2021/08/21 05:15:10;;;;;;;6.93;4.50;;;14.30;99.90;;;;;;5098210;28;20012;-68
2021/08/21 05:17:37;;;;;;;4.93;4.00;;;14.30;99.90;;;;;;5098093;28;20110;-69
2021/08/21 05:20:08;;;;;;;5.07;4.63;;;14.40;99.90;;;;;;5097931;28;20024;-68
2021/08/21 05:22:48;;;;;;;5.20;4.18;;;14.40;99.90;;;;;;5098128;28;20035;-67
2021/08/21 05:25:15;;;;;;;4.88;4.38;;;14.40;99.90;;;;;;5096470;28;20161;-68
2021/08/21 05:27:41;;;;;;;10.00;5.53;;;14.60;99.90;;;;;;5097764;28;20076;-68
2021/08/21 05:30:08;;;;;;;3.78;3.42;;;14.60;99.90;;;;;;5097948;28;20028;-68
2021/08/21 05:32:36;;;;;;;3.47;2.92;;;14.60;99.90;;;;;;5096912;28;20021;-69
2021/08/21 05:35:02;;;;;;;4.72;3.75;;;14.60;99.90;;;;;;5098048;28;20539;-68
2021/08/21 05:37:28;;;;;;;5.43;3.25;;;14.70;99.90;;;;;;5097657;28;20028;-68
2021/08/21 05:39:54;;;;;;;4.85;3.40;;;14.70;99.90;;;;;;5097691;28;20555;-68
2021/08/21 05:42:20;;;;;;;4.15;3.78;;;14.80;99.90;;;;;;5097438;28;20048;-68
2021/08/21 05:44:46;;;;;;;3.70;3.22;;;14.80;99.90;;;;;;5097695;28;20134;-68
2021/08/21 05:47:11;;;;;;;4.18;3.78;;;14.80;99.90;;;;;;5097639;28;20020;-67
2021/08/21 05:49:37;;;;;;;4.28;3.88;;;14.90;99.90;;;;;;5097630;28;20393;-68
2021/08/21 05:52:04;;;;;;;3.85;3.55;;;14.90;99.90;;;;;;5097322;28;20032;-68
2021/08/21 05:54:30;;;;;;;5.43;4.22;;;15.00;99.90;;;;;;5097193;28;20031;-68
2021/08/21 05:56:57;;;;;;;4.05;3.65;;;15.10;99.90;;;;;;5097474;28;20500;-68
2021/08/21 05:59:23;;;;;;;3.78;3.42;;;15.00;99.90;;;;;;5097127;28;20024;-68
2021/08/21 06:01:49;;;;;;;3.72;3.42;;;15.10;99.90;;;;;;5097179;28;20035;-68
2021/08/21 06:04:15;;;;;;;3.30;3.00;;;15.10;99.90;;;;;;5097413;28;20021;-68
2021/08/21 06:06:41;;;;;;;4.75;3.63;;;15.10;99.90;;;;;;5097337;28;20396;-68
2021/08/21 06:09:07;;;;;;;4.00;3.67;;;15.20;99.90;;;;;;5095885;28;20106;-68
2021/08/21 06:11:33;;;;;;;5.13;4.63;;;15.20;99.90;;;;;;5096975;28;20523;-68
2021/08/21 06:13:58;;;;;;;4.13;3.72;;;15.20;99.90;;;;;;5097053;28;20091;-68
2021/08/21 06:16:24;;;;;;;4.97;3.60;;;15.20;99.90;;;;;;5097028;28;20055;-68
2021/08/21 06:18:50;;;;;;;4.15;3.72;;;15.30;99.90;;;;;;5095803;28;20099;-68
2021/08/21 06:21:16;;;;;;;4.97;3.80;;;15.30;99.90;;;;;;5096939;28;20407;-68
2021/08/21 06:23:42;;;;;;;2.88;2.67;;;15.40;99.90;;;;;;5097016;28;20149;-68
2021/08/21 06:26:08;;;;;;;3.42;3.13;;;15.40;99.90;;;;;;5097028;28;20048;-68
2021/08/21 06:28:34;;;;;;;3.25;2.95;;;15.50;99.90;;;;;;5096777;28;20016;-68
2021/08/21 06:31:00;;;;;;;5.60;4.50;;;15.50;99.90;;;;;;5096712;28;20028;-68
2021/08/21 06:33:26;;;;;;;3.28;2.95;;;15.60;99.90;;;;;;5096729;28;20392;-69
2021/08/21 06:35:52;;;;;;;3.50;3.20;;;15.80;99.90;;;;;;5096951;28;20058;-68
2021/08/21 06:38:18;;;;;;;4.07;3.17;;;15.90;99.90;;;;;;5096810;28;20400;-68
2021/08/21 06:40:44;;;;;;;3.55;3.15;;;15.90;99.90;;;;;;5096752;28;20028;-68
2021/08/21 06:43:10;;;;;;;3.30;3.00;;;16.00;99.90;;;;;;5095366;28;20020;-68
2021/08/21 06:45:36;;;;;;;3.38;3.15;;;16.10;99.90;;;;;;5100112;28;20116;-67
2021/08/21 06:48:02;;;;;;;3.85;3.03;;;16.20;99.90;;;;;;5099738;28;20024;-68
2021/08/21 06:50:33;;;;;;;3.42;3.13;;;16.20;99.90;;;;;;5100854;28;20051;-69
2021/08/21 06:53:03;;;;;;;3.45;3.15;;;16.30;99.90;;;;;;5099636;28;20023;-69
2021/08/21 06:55:29;;;;;;;4.38;2.80;;;16.40;99.90;;;;;;5100499;28;20127;-69
2021/08/21 06:57:55;;;;;;;4.70;3.35;;;16.40;99.90;;;;;;5100578;28;20453;-69
2021/08/21 07:00:21;;;;;;;3.40;3.05;;;16.40;99.90;;;;;;5100736;28;20111;-70
2021/08/21 07:02:47;;;;;;;4.43;3.95;;;16.50;99.90;;;;;;5099371;28;20024;-69
2021/08/21 07:05:13;;;;;;;3.63;3.33;;;16.50;99.90;;;;;;5100614;28;20560;-69
2021/08/21 07:07:39;;;;;;;3.53;3.20;;;16.40;99.90;;;;;;5100788;28;20020;-69
2021/08/21 07:10:05;;;;;;;2.78;2.58;;;16.50;99.90;;;;;;5100369;28;20086;-69
2021/08/21 07:12:31;;;;;;;3.72;3.20;;;16.50;99.90;;;;;;5100341;28;20299;-69
2021/08/21 07:14:57;;;;;;;4.00;2.80;;;16.50;99.90;;;;;;5100629;28;20032;-69
2021/08/21 07:17:23;;;;;;;12.43;4.03;;;16.50;99.90;;;;;;5099152;28;20020;-69
2021/08/21 07:19:49;;;;;;;3.88;3.08;;;16.60;99.90;;;;;;5100511;28;20055;-69
2021/08/21 07:22:15;;;;;;;3.03;2.55;;;16.50;99.90;;;;;;5100419;28;20024;-69
2021/08/21 07:24:40;;;;;;;4.38;2.78;;;16.60;99.90;;;;;;5100192;28;20028;-68
2021/08/21 07:27:07;;;;;;;2.75;2.55;;;16.70;99.90;;;;;;5100128;28;20054;-68
2021/08/21 07:29:32;;;;;;;7.03;3.10;;;16.70;99.90;;;;;;5098829;28;20024;-68
2021/08/21 07:31:58;;;;;;;3.63;3.00;;;16.70;99.90;;;;;;5100061;28;20031;-69
2021/08/21 07:34:24;;;;;;;5.72;3.38;;;16.80;99.90;;;;;;5100012;28;20111;-69
2021/08/21 07:36:50;;;;;;;4.32;3.92;;;16.90;99.90;;;;;;5100155;28;20551;-70
2021/08/21 07:39:16;;;;;;;3.83;3.38;;;17.00;99.90;;;;;;5099914;28;20028;-69
2021/08/21 07:41:42;;;;;;;5.88;5.25;;;16.90;99.90;;;;;;5100036;28;20026;-69
2021/08/21 07:44:08;;;;;;;4.55;3.78;;;17.10;99.90;;;;;;5099790;28;20030;-69
2021/08/21 07:46:34;;;;;;;4.13;3.72;;;17.00;99.90;;;;;;5099954;28;20016;-69
2021/08/21 07:48:59;;;;;;;4.28;3.80;;;16.90;99.90;;;;;;5098380;28;20020;-69
2021/08/21 07:51:25;;;;;;;6.65;5.75;;;17.10;99.90;;;;;;5099940;28;20076;-69
2021/08/21 07:53:51;;;;;;;8.75;6.10;;;17.10;99.90;;;;;;5099617;28;20103;-70
2021/08/21 07:56:17;;;;;;;10.82;5.07;;;16.90;99.90;;;;;;5098622;28;20044;-69
2021/08/21 07:58:43;;;;;;;7.25;5.20;;;16.90;99.90;;;;;;5098086;28;20035;-68
2021/08/21 08:01:08;;;;;;;7.03;6.32;;;16.90;99.90;;;;;;5099690;28;20023;-69
2021/08/21 08:03:34;;;;;;;7.05;6.35;;;17.00;99.90;;;;;;5099611;28;20506;-69
2021/08/21 08:06:01;;;;;;;13.57;9.15;;;17.10;99.90;;;;;;5099595;28;20046;-68
2021/08/21 08:08:27;;;;;;;11.68;9.30;;;17.00;99.90;;;;;;5099276;28;20039;-69
2021/08/21 08:10:53;;;;;;;13.57;9.25;;;17.00;99.90;;;;;;5099463;28;20051;-68
2021/08/21 08:13:19;;;;;;;11.50;8.77;;;16.90;99.90;;;;;;5098976;28;20032;-68
2021/08/21 08:15:45;;;;;;;10.27;9.02;;;16.80;99.90;;;;;;5097989;28;20070;-69
2021/08/21 08:18:11;;;;;;;14.10;8.32;;;16.80;99.90;;;;;;5080494;28;20107;-68
2021/08/21 08:20:37;;;;;;;8.18;6.60;;;17.00;99.90;;;;;;5099429;28;20102;-67
2021/08/21 08:23:04;;;;;;;8.73;5.68;;;16.80;99.90;;;;;;5097658;28;20039;-67
2021/08/21 08:25:31;;;;;;;9.90;8.13;;;16.80;99.90;;;;;;5099051;28;20506;-68
2021/08/21 08:27:57;;;;;;;16.58;8.65;;;16.80;99.90;;;;;;5098741;28;20024;-67
2021/08/21 08:30:23;;;;;;;12.82;8.68;;;16.70;99.90;;;;;;5090839;28;20439;-67
2021/08/21 08:32:48;;;;;;;7.10;6.22;;;16.80;99.90;;;;;;5099195;28;20025;-67
2021/08/21 08:35:14;;;;;;;7.10;5.10;;;16.70;99.90;;;;;;5106051;28;20016;-68
2021/08/21 08:37:41;;;;;;;7.15;4.18;;;16.50;99.90;;;;;;5101352;28;20058;-67
2021/08/21 08:40:09;;;;;;;4.75;4.10;;;16.60;99.90;;;;;;5098825;28;20023;-68
2021/08/21 08:42:39;;;;;;;5.88;4.80;;;16.50;99.90;;;;;;5098450;28;20027;-67
2021/08/21 08:45:07;;;;;;;6.38;3.80;;;16.70;99.90;;;;;;5098559;28;20020;-68
2021/08/21 08:47:35;;;;;;;5.20;3.88;;;16.70;99.90;;;;;;5101316;28;20120;-68
2021/08/21 08:50:04;;;;;;;4.88;3.65;;;16.70;99.90;;;;;;5097488;28;20032;-68
2021/08/21 08:52:30;;;;;;;3.58;3.03;;;16.80;99.90;;;;;;5097951;28;20032;-68
2021/08/21 08:54:57;;;;;;;6.82;3.80;;;16.90;99.90;;;;;;5098391;28;20127;-68
2021/08/21 08:57:39;;;;;;;3.85;2.90;;;;;;;;;;5098281;28;20108;-68
2021/08/21 09:00:11;;;;;;;5.32;3.47;;;16.90;99.90;;;;;;5098397;28;20069;-68
2021/08/21 09:02:45;;;;;;;4.75;3.22;;;16.80;99.90;;;;;;5097178;28;20054;-68
2021/08/21 09:05:14;;;;;;;5.82;3.35;;;16.80;99.90;;;;;;5098476;28;20042;-68
2021/08/21 09:07:46;;;;;;;8.35;4.88;;;16.90;99.90;;;;;;5098452;28;20391;-68
2021/08/21 09:10:22;;;;;;;5.93;4.55;;;16.90;99.90;;;;;;5098065;28;20024;-68
2021/08/21 09:12:49;;;;;;;;;;;16.90;99.90;;;;;;5098236;28;20024;-67
2021/08/21 09:15:25;;;;;;;7.60;4.00;;;;;;;;;;5098395;28;19904;-68
2021/08/21 09:18:06;;;;;;;4.32;3.92;;;;;;;;;;5098031;28;20020;-68
2021/08/21 09:20:34;;;;;;;4.97;3.53;;;17.10;99.90;;;;;;5096769;28;20032;-68
2021/08/21 09:23:31;;;;;;;5.25;4.47;;;17.10;99.90;;;;;;5098071;28;20099;-68
2021/08/21 09:26:04;;;;;;;4.60;3.72;;;17.10;99.90;;;;;;5097830;28;20475;-68
2021/08/21 09:28:31;;;;;;;5.18;4.10;;;17.10;99.90;;;;;;5097867;28;20039;-68
2021/08/21 09:31:15;;;;;;;5.07;3.92;;;17.10;99.90;;;;;;5097740;28;20075;-67
2021/08/21 09:33:51;;;;;;;5.93;4.72;;;17.10;99.90;;;;;;5096561;28;20070;-68
2021/08/21 09:36:34;;;;;;;3.55;3.25;;;17.00;99.90;;;;;;5097666;28;20476;-67
2021/08/21 09:39:04;;;;;;;4.65;4.18;;;17.00;99.90;;;;;;5096287;28;20507;-68
2021/08/21 09:41:30;;;;;;;3.95;3.55;;;17.00;99.90;;;;;;5097694;28;20021;-68
2021/08/21 09:44:07;;;;;;;4.55;3.33;;;17.00;99.90;;;;;;5097296;28;20016;-68
2021/08/21 09:46:34;;;;;;;4.65;3.28;;;17.00;99.90;;;;;;5097714;28;20103;-68
2021/08/21 09:49:08;;;;;;;4.03;2.90;;;17.00;99.90;;;;;;5097570;28;20436;-68
2021/08/21 09:51:43;;;;;;;6.00;4.43;;;17.00;99.90;;;;;;5097428;28;20024;-68
2021/08/21 09:54:12;;;;;;;6.38;4.88;;;17.10;99.90;;;;;;5097203;28;20388;-68
2021/08/21 09:56:43;;;;;;;6.13;4.10;;;17.20;99.90;;;;;;5097725;28;20479;-67
2021/08/21 09:59:10;;;;;;;5.55;4.18;;;17.20;99.90;;;;;;5097185;28;20016;-67
2021/08/21 10:01:36;;;;;;;6.00;4.28;;;17.30;99.90;;;;;;5097398;28;20472;-68
2021/08/21 10:04:03;;;;;;;6.55;4.45;;;17.50;99.90;;;;;;5097403;28;20036;-68
2021/08/21 10:06:29;;;;;;;6.93;5.00;;;17.60;99.90;;;;;;5097310;28;20024;-68
2021/08/21 10:09:10;;;;;;;5.45;4.85;;;17.80;99.90;;;;;;5097218;28;20383;-67
2021/08/21 10:11:36;;;;;;;4.13;3.72;;;18.00;99.90;;;;;;5095685;28;20028;-68
2021/08/21 10:14:03;;;;;;;5.70;3.17;;;18.10;99.90;;;;;;5095621;28;20488;-68
2021/08/21 10:16:31;;;;;;;6.25;3.50;;;18.00;99.90;;;;;;5097183;28;20024;-68
2021/08/21 10:18:59;;;;;;;3.17;2.97;;;18.10;99.90;;;;;;5096651;28;20377;-67
2021/08/21 10:21:25;;;;;;;6.28;3.78;;;18.00;99.90;;;;;;5096969;28;20031;-68
2021/08/21 10:23:52;;;;;;;4.22;3.70;;;18.00;99.90;;;;;;5095620;28;20115;-68
2021/08/21 10:26:35;;;;;;;3.88;3.17;;;18.10;99.90;;;;;;5097012;28;20031;-67
2021/08/21 10:29:08;;;;;;;3.03;2.72;;;18.00;99.90;;;;;;5096812;28;20028;-68
2021/08/21 10:31:39;;;;;;;5.28;3.95;;;18.10;99.90;;;;;;5096883;28;20509;-68
2021/08/21 10:34:09;;;;;;;3.65;3.22;;;17.60;99.90;;;;;;5097088;28;20349;-68
2021/08/21 10:36:48;;;;;;;2.70;2.50;;;18.30;99.90;;;;;;5087768;28;20028;-67
2021/08/21 10:39:15;;;;;;;3.10;2.80;;;18.30;99.90;;;;;;5108326;28;20380;-68
2021/08/21 10:41:41;;;;;;;3.28;2.75;;;18.30;99.90;;;;;;5115833;28;20084;-67
2021/08/21 10:44:07;;;;;;;4.95;3.20;;;18.30;99.90;;;;;;5115891;28;20024;-68
2021/08/21 10:46:33;;;;;;;2.45;2.25;;;18.40;99.90;;;;;;5115884;28;20080;-68
2021/08/21 10:49:00;;;;;;;4.18;2.90;;;;;;;;;;5117000;28;20450;-68
2021/08/21 10:51:34;;;;;;;4.05;3.05;;;18.60;99.90;;;;;;5116905;28;20051;-68
2021/08/21 10:54:20;;;;;;;4.38;3.10;;;18.60;99.90;;;;;;5115448;28;20039;-67
2021/08/21 10:56:47;;;;;;;3.30;2.65;;;;;;;;;;5116860;28;20410;-68
2021/08/21 10:59:13;;;;;;;2.97;2.35;;;;;;;;;;5116904;28;20020;-68
2021/08/21 11:01:39;;;;;;;5.25;2.67;;;19.10;99.90;;;;;;5117257;28;20486;-68
2021/08/21 11:04:05;;;;;;;3.40;2.35;;;19.30;99.90;;;;;;5117082;28;20023;-69
2021/08/21 11:06:36;;;;;;;2.90;2.65;;;19.40;99.90;;;;;;5117062;28;20038;-67
2021/08/21 11:09:07;;;;;;;3.95;2.47;;;19.60;99.90;;;;;;5115900;28;20062;-68
2021/08/21 11:11:45;;;;;;;3.00;2.70;;;;;;;;;;5116921;28;20023;-68
2021/08/21 11:14:22;;;;;;;4.38;2.53;;;19.90;99.90;;;;;;5116803;28;20031;-68
2021/08/21 11:16:57;;;;;;;2.75;2.05;;;;;;;;;;5116782;28;20079;-70
2021/08/21 11:19:28;;;;;;;2.30;1.98;;;20.70;99.90;;;;;;5115674;28;20028;-68
2021/08/21 11:22:13;;;;;;;2.25;1.80;;;;;;;;;;5116963;28;20084;-69
2021/08/21 11:24:52;;;;;;;1.90;1.70;;;22.10;99.90;;;;;;5116855;28;20472;-69
2021/08/21 11:27:28;;;;;;;2.45;1.65;;;23.00;99.90;;;;;;5104447;28;20027;-68
2021/08/21 11:30:10;;;;;;;1.95;1.40;;;23.90;99.90;;;;;;5096395;28;20476;-68
2021/08/21 11:32:45;;;;;;;3.30;1.80;;;24.40;99.90;;;;;;5099242;28;20024;-69
2021/08/21 11:35:52;;;;;;;2.72;1.80;;;24.60;99.90;;;;;;5100340;28;20024;-69
2021/08/21 11:38:30;;;;;;;2.58;2.13;;;25.10;99.90;;;;;;5098602;28;20024;-68
2021/08/21 11:40:59;;;;;;;2.67;1.98;;;25.30;99.90;;;;;;5100191;28;20020;-68
2021/08/21 11:43:27;;;;;;;3.28;2.20;;;24.80;99.90;;;;;;5100022;28;20086;-68
2021/08/21 11:45:54;;;;;;;3.17;2.00;;;23.80;99.90;;;;;;5099876;28;20052;-68
2021/08/21 11:48:29;;;;;;;2.97;2.63;;;23.00;99.90;;;;;;5100078;28;20485;-68
2021/08/21 11:50:56;;;;;;;3.50;2.92;;;22.60;99.90;;;;;;5099682;28;20027;-68
2021/08/21 11:53:24;;;;;;;3.70;3.10;;;22.00;99.90;;;;;;5099596;28;20028;-68
2021/08/21 11:55:52;;;;;;;5.97;2.78;;;22.00;99.90;;;;;;5099683;28;20416;-68
2021/08/21 11:58:33;;;;;;;5.18;3.38;;;21.80;99.90;;;;;;5098072;28;20480;-68
2021/08/21 12:01:09;;;;;;;5.70;3.08;;;21.30;99.90;;;;;;5098350;28;20027;-68
2021/08/21 12:04:22;;;;;;;3.80;2.40;;;;;;;;;;5099567;28;20028;-68
2021/08/21 12:06:26;;;;;;;3.78;2.70;;;20.90;99.90;;;;;;5099397;28;20039;-68
2021/08/21 12:09:05;;;;;;;3.45;2.47;;;21.00;99.90;;;;;;5099652;28;20027;-68
2021/08/21 12:11:31;;;;;;;2.53;2.33;;;21.10;99.90;;;;;;5097931;28;20024;-69
2021/08/21 12:13:59;;;;;;;1.70;1.60;;;21.00;99.90;;;;;;5097805;28;20026;-69
2021/08/21 12:16:28;;;;;;;1.83;1.63;;;21.10;99.90;;;;;;5099384;28;20065;-69
2021/08/21 12:18:56;;;;;;;1.77;1.48;;;21.10;99.90;;;;;;5099315;28;20024;-69
2021/08/21 12:21:23;;;;;;;1.88;1.77;;;21.00;99.90;;;;;;5097866;28;20028;-69
2021/08/21 12:23:52;;;;;;;2.20;1.60;;;20.80;99.90;;;;;;5097901;28;20032;-69
2021/08/21 12:26:34;;;;;;;3.58;1.90;;;20.70;99.90;;;;;;5099137;28;20020;-69
2021/08/21 12:29:01;;;;;;;2.00;1.80;;;20.70;99.90;;;;;;5097552;28;20087;-69
2021/08/21 12:31:38;;;;;;;2.28;1.75;;;20.70;99.90;;;;;;5097311;28;20051;-69
2021/08/21 12:34:05;;;;;;;2.00;1.80;;;20.80;99.90;;;;;;5097666;28;20031;-68
2021/08/21 12:36:40;;;;;;;2.05;1.80;;;20.60;99.90;;;;;;5099117;28;20016;-69
2021/08/21 12:39:11;;;;;;;2.92;2.05;;;20.50;99.90;;;;;;5097560;28;20042;-69
2021/08/21 12:42:05;;;;;;;2.88;2.05;;;20.50;99.90;;;;;;5097359;28;20024;-68
2021/08/21 12:44:37;;;;;;;6.15;2.17;;;20.40;99.90;;;;;;5097566;28;20028;-68
2021/08/21 12:47:03;;;;;;;3.03;2.67;;;20.60;99.90;;;;;;5097369;28;20028;-69
2021/08/21 12:49:32;;;;;;;3.03;1.77;;;20.70;99.90;;;;;;5099121;28;20142;-68
2021/08/21 12:52:00;;;;;;;2.75;2.00;;;20.80;99.90;;;;;;5098611;28;20016;-68
2021/08/21 12:54:40;;;;;;;3.50;1.90;;;20.70;99.90;;;;;;5098490;28;20054;-68
2021/08/21 12:57:18;;;;;;;2.58;1.80;;;20.60;99.90;;;;;;5098462;28;20016;-69